Time;durP1;ratioP1;P1;durP2;ratioP2;P2;SDS_P1;SDS_P2;PMS_P1;PMS_P2;Temp;Humidity;BMP_temperature;BMP_pressure;BME280_temperature;BME280_humidity;BME280_pressure;Samples;Min_cycle;Max_cycle;Signal;HPM_P1;HPM_P2
2023/09/23 00:01:38;;;;;;;1.80;1.40;;;23.70;51.70;;;;;;5050575;27;94012;-52
2023/09/23 00:04:08;;;;;;;2.00;1.30;;;23.70;51.70;;;;;;5075300;27;94777;-51
2023/09/23 00:06:37;;;;;;;1.57;1.47;;;23.70;51.70;;;;;;5078288;27;92032;-52
2023/09/23 00:09:07;;;;;;;2.87;1.87;;;23.70;51.70;;;;;;5055850;27;92206;-52
2023/09/23 00:11:37;;;;;;;2.67;1.60;;;23.70;51.70;;;;;;5045722;27;92198;-52
2023/09/23 00:14:05;;;;;;;2.47;1.20;;;23.70;51.70;;;;;;5036669;28;93841;-52
2023/09/23 00:16:34;;;;;;;1.57;1.30;;;23.70;51.70;;;;;;5035524;28;92096;-53
2023/09/23 00:19:03;;;;;;;1.40;1.20;;;23.70;51.70;;;;;;5036447;28;91364;-53
2023/09/23 00:21:32;;;;;;;1.60;1.13;;;23.70;51.70;;;;;;5036747;28;93032;-53
2023/09/23 00:24:01;;;;;;;1.40;1.27;;;23.70;51.70;;;;;;5034664;28;92686;-53
2023/09/23 00:26:29;;;;;;;1.43;1.20;;;23.60;51.70;;;;;;5035546;28;93061;-53
2023/09/23 00:28:57;;;;;;;2.30;1.47;;;23.70;51.80;;;;;;5036900;27;92042;-52
2023/09/23 00:31:26;;;;;;;1.70;1.20;;;23.60;51.70;;;;;;5040214;28;93089;-52
2023/09/23 00:33:54;;;;;;;1.77;1.17;;;23.60;51.70;;;;;;5039959;28;93066;-52
2023/09/23 00:36:22;;;;;;;1.70;1.40;;;23.60;52.40;;;;;;5040684;28;92067;-53
2023/09/23 00:38:52;;;;;;;3.03;1.30;;;23.60;51.70;;;;;;5039912;28;92833;-53
2023/09/23 00:41:20;;;;;;;1.77;1.40;;;23.60;51.70;;;;;;5039219;28;93088;-53
2023/09/23 00:43:48;;;;;;;2.03;1.23;;;23.60;51.70;;;;;;5041199;27;93743;-52
2023/09/23 00:46:21;;;;;;;2.70;1.10;;;23.60;51.80;;;;;;5041311;27;92376;-53
2023/09/23 00:48:49;;;;;;;2.20;1.10;;;23.60;51.80;;;;;;5039861;28;91881;-53
2023/09/23 00:51:18;;;;;;;1.27;1.10;;;23.50;51.70;;;;;;5039202;28;95036;-52
2023/09/23 00:53:46;;;;;;;1.70;1.03;;;23.60;51.80;;;;;;5037065;28;93824;-53
2023/09/23 00:56:19;;;;;;;1.60;0.97;;;23.50;51.80;;;;;;5040550;28;92047;-52
2023/09/23 00:58:47;;;;;;;1.77;1.03;;;23.60;51.90;;;;;;5039640;28;92021;-53
2023/09/23 01:01:16;;;;;;;1.10;1.00;;;23.60;51.90;;;;;;5039524;28;93067;-53
2023/09/23 01:03:45;;;;;;;1.93;1.40;;;23.60;51.90;;;;;;5037787;28;92353;-53
2023/09/23 01:06:15;;;;;;;2.33;1.13;;;23.50;51.80;;;;;;5039509;28;92028;-52
2023/09/23 01:08:45;;;;;;;2.43;1.43;;;23.50;51.80;;;;;;5040290;28;91353;-53
2023/09/23 01:11:17;;;;;;;1.53;1.17;;;23.50;51.80;;;;;;5039617;28;93009;-53
2023/09/23 01:13:46;;;;;;;0.77;0.77;;;23.50;51.80;;;;;;5039712;28;93779;-53
2023/09/23 01:16:15;;;;;;;1.80;0.97;;;23.50;51.80;;;;;;5043987;27;93082;-52
2023/09/23 01:18:45;;;;;;;0.87;0.77;;;23.50;51.80;;;;;;5059037;27;92071;-52
2023/09/23 01:21:13;;;;;;;1.17;0.87;;;23.50;51.80;;;;;;5056328;27;94078;-52
2023/09/23 01:23:43;;;;;;;1.80;1.20;;;23.50;51.80;;;;;;5058455;27;92723;-53
2023/09/23 01:26:12;;;;;;;1.37;1.07;;;23.50;51.90;;;;;;5058766;27;92040;-52
2023/09/23 01:28:40;;;;;;;2.53;1.17;;;23.50;51.80;;;;;;5057791;27;92141;-52
2023/09/23 01:31:08;;;;;;;1.70;1.17;;;23.50;51.90;;;;;;5058701;27;94316;-52
2023/09/23 01:33:38;;;;;;;0.70;0.60;;;23.50;51.90;;;;;;5058894;27;92774;-53
2023/09/23 01:36:06;;;;;;;1.90;1.10;;;23.50;51.90;;;;;;5058925;27;92121;-53
2023/09/23 01:38:34;;;;;;;2.10;1.33;;;23.50;51.90;;;;;;5056282;27;92872;-53
2023/09/23 01:41:04;;;;;;;1.87;1.63;;;23.50;51.90;;;;;;5058414;27;94001;-53
2023/09/23 01:43:32;;;;;;;3.40;1.83;;;23.50;52.00;;;;;;5059105;27;93150;-51
2023/09/23 01:46:03;;;;;;;3.10;1.63;;;23.50;51.90;;;;;;5058916;27;92177;-51
2023/09/23 01:48:32;;;;;;;2.47;1.83;;;23.50;51.90;;;;;;5056907;27;92167;-52
2023/09/23 01:51:00;;;;;;;3.17;1.87;;;23.50;51.90;;;;;;5057646;27;94339;-51
2023/09/23 01:53:28;;;;;;;3.57;2.40;;;23.50;51.90;;;;;;5057896;27;92734;-51
2023/09/23 01:55:56;;;;;;;3.83;1.87;;;23.50;51.90;;;;;;5048553;27;92014;-52
2023/09/23 01:58:26;;;;;;;3.97;2.80;;;23.50;51.90;;;;;;5048378;27;91101;-52
2023/09/23 02:00:55;;;;;;;4.47;2.70;;;23.50;51.90;;;;;;5044978;27;92840;-52
2023/09/23 02:03:23;;;;;;;4.23;2.50;;;23.50;51.90;;;;;;5047316;27;92780;-52
2023/09/23 02:05:53;;;;;;;4.27;2.43;;;23.40;51.80;;;;;;5048777;27;92875;-52
2023/09/23 02:08:21;;;;;;;3.60;2.73;;;23.50;51.90;;;;;;5048345;27;92171;-52
2023/09/23 02:10:49;;;;;;;6.33;2.90;;;23.50;51.90;;;;;;5059027;27;92926;-52
2023/09/23 02:13:18;;;;;;;2.90;2.47;;;23.50;51.90;;;;;;5058896;27;92721;-52
2023/09/23 02:15:48;;;;;;;4.07;2.73;;;23.50;51.90;;;;;;5059690;27;92119;-52
2023/09/23 02:18:16;;;;;;;4.77;2.67;;;23.40;51.90;;;;;;5056605;27;92130;-53
2023/09/23 02:20:44;;;;;;;4.67;3.27;;;23.40;51.90;;;;;;5057852;27;93472;-53
2023/09/23 02:23:12;;;;;;;4.50;3.23;;;23.50;52.00;;;;;;5041870;27;92566;-53
2023/09/23 02:25:42;;;;;;;5.47;3.10;;;23.40;51.90;;;;;;5038995;28;92034;-53
2023/09/23 02:28:10;;;;;;;3.63;2.47;;;23.40;51.90;;;;;;5038419;28;92636;-51
2023/09/23 02:30:42;;;;;;;6.37;3.70;;;23.40;52.00;;;;;;5037702;28;94063;-51
2023/09/23 02:33:12;;;;;;;4.87;2.60;;;23.40;52.00;;;;;;5038385;28;93722;-52
2023/09/23 02:35:40;;;;;;;4.87;2.90;;;23.40;52.00;;;;;;5038239;28;92122;-52
2023/09/23 02:38:10;;;;;;;4.50;3.10;;;23.40;52.00;;;;;;5038719;28;91950;-52
2023/09/23 02:40:41;;;;;;;3.37;2.30;;;23.40;52.00;;;;;;5037558;28;94165;-52
2023/09/23 02:43:09;;;;;;;2.87;2.47;;;23.40;52.10;;;;;;5037647;28;92942;-52
2023/09/23 02:45:37;;;;;;;4.80;2.90;;;23.40;52.00;;;;;;5038990;28;92087;-52
2023/09/23 02:48:07;;;;;;;4.47;3.20;;;23.40;52.00;;;;;;5042625;27;91317;-51
2023/09/23 02:50:37;;;;;;;3.57;2.63;;;23.30;52.00;;;;;;5046680;27;93145;-52
2023/09/23 02:53:05;;;;;;;4.37;2.60;;;23.30;52.00;;;;;;5046426;27;93390;-52
2023/09/23 02:55:33;;;;;;;5.30;2.60;;;23.30;52.00;;;;;;5045110;27;93057;-52
2023/09/23 02:58:01;;;;;;;3.67;2.57;;;23.30;52.00;;;;;;5044483;27;91955;-52
2023/09/23 03:00:33;;;;;;;4.03;2.60;;;23.30;52.60;;;;;;5047020;27;93015;-52
2023/09/23 03:03:08;;;;;;;3.60;2.47;;;23.30;52.00;;;;;;5043342;27;93963;-52
2023/09/23 03:05:44;;;;;;;3.33;2.40;;;23.30;52.00;;;;;;5045781;27;91908;-51
2023/09/23 03:08:13;;;;;;;3.47;2.40;;;23.30;52.00;;;;;;5045138;27;92144;-52
2023/09/23 03:10:44;;;;;;;4.53;2.90;;;23.30;52.00;;;;;;5043363;27;94416;-53
2023/09/23 03:13:12;;;;;;;3.37;2.37;;;23.30;52.00;;;;;;5046841;27;92670;-52
2023/09/23 03:15:44;;;;;;;4.23;3.10;;;23.30;52.00;;;;;;5043737;27;92092;-52
2023/09/23 03:18:14;;;;;;;4.70;3.33;;;23.30;52.00;;;;;;5045944;27;92096;-50
2023/09/23 03:20:44;;;;;;;5.83;4.10;;;23.30;52.70;;;;;;5041888;27;94245;-52
2023/09/23 03:23:12;;;;;;;5.90;3.33;;;23.30;52.10;;;;;;5045640;27;93842;-52
2023/09/23 03:25:45;;;;;;;6.27;3.77;;;23.30;52.10;;;;;;5048105;27;92118;-52
2023/09/23 03:28:15;;;;;;;4.83;3.60;;;23.30;52.10;;;;;;5045233;27;92270;-52
2023/09/23 03:30:44;;;;;;;7.27;3.77;;;23.30;52.10;;;;;;5045334;27;93073;-52
2023/09/23 03:33:12;;;;;;;7.47;4.17;;;23.30;52.10;;;;;;5046144;27;93905;-52
2023/09/23 03:35:40;;;;;;;7.70;4.97;;;23.30;52.10;;;;;;5048271;27;92169;-51
2023/09/23 03:38:10;;;;;;;7.40;5.07;;;23.30;52.10;;;;;;5043498;27;91390;-53
2023/09/23 03:40:39;;;;;;;7.20;5.20;;;23.30;52.10;;;;;;5043389;27;93226;-52
2023/09/23 03:43:07;;;;;;;8.17;5.07;;;23.30;52.80;;;;;;5046372;27;92833;-52
2023/09/23 03:45:35;;;;;;;9.83;6.03;;;23.30;52.10;;;;;;5047544;27;92871;-52
2023/09/23 03:48:04;;;;;;;7.80;5.87;;;23.30;52.10;;;;;;5047810;27;92246;-52
2023/09/23 03:50:32;;;;;;;17.20;6.50;;;23.30;52.10;;;;;;5047228;27;94069;-52
2023/09/23 03:53:00;;;;;;;10.60;6.87;;;23.30;52.20;;;;;;5041756;27;94025;-52
2023/09/23 03:55:30;;;;;;;11.43;7.20;;;23.10;52.00;;;;;;5047077;27;92114;-51
2023/09/23 03:57:58;;;;;;;11.50;7.27;;;23.30;52.10;;;;;;5050428;27;92202;-52
2023/09/23 04:00:27;;;;;;;13.47;8.00;;;23.30;52.10;;;;;;5057170;27;94048;-52
2023/09/23 04:02:55;;;;;;;12.37;8.37;;;23.30;52.10;;;;;;5049905;27;92913;-52
2023/09/23 04:05:25;;;;;;;11.83;7.60;;;23.30;52.10;;;;;;5048987;27;92119;-52
2023/09/23 04:07:53;;;;;;;17.40;10.20;;;23.30;52.10;;;;;;5058996;27;92088;-53
2023/09/23 04:10:23;;;;;;;15.53;8.10;;;23.30;52.80;;;;;;5043530;27;94220;-53
2023/09/23 04:12:54;;;;;;;16.17;10.87;;;23.30;52.20;;;;;;5047737;27;93646;-53
2023/09/23 04:15:22;;;;;;;17.60;9.57;;;23.30;52.20;;;;;;5048841;27;92008;-52
2023/09/23 04:17:50;;;;;;;21.40;10.50;;;23.30;52.20;;;;;;5047101;27;92212;-52
2023/09/23 04:20:18;;;;;;;16.67;10.03;;;23.20;52.10;;;;;;5048364;27;94515;-52
2023/09/23 04:22:48;;;;;;;22.97;11.47;;;23.20;52.20;;;;;;5050568;27;93654;-53
2023/09/23 04:25:16;;;;;;;15.33;9.80;;;23.20;52.20;;;;;;5050137;27;92058;-52
2023/09/23 04:27:46;;;;;;;23.63;12.23;;;23.20;52.20;;;;;;5049345;27;91448;-52
2023/09/23 04:30:15;;;;;;;19.87;11.83;;;23.20;52.20;;;;;;5049086;27;93066;-52
2023/09/23 04:32:43;;;;;;;19.53;11.07;;;23.20;52.80;;;;;;5048555;27;93867;-53
2023/09/23 04:35:12;;;;;;;22.40;12.43;;;23.20;52.20;;;;;;5048062;27;93042;-52
2023/09/23 04:37:41;;;;;;;22.17;13.50;;;23.20;52.20;;;;;;5048212;27;92359;-52
2023/09/23 04:40:10;;;;;;;20.47;11.37;;;23.20;52.20;;;;;;5045423;27;94029;-52
2023/09/23 04:42:39;;;;;;;16.87;11.33;;;23.20;52.20;;;;;;5048575;27;92643;-52
2023/09/23 04:45:07;;;;;;;21.20;13.17;;;23.20;52.20;;;;;;5049880;27;91955;-53
2023/09/23 04:47:37;;;;;;;21.80;12.73;;;23.20;52.30;;;;;;5049074;27;92095;-52
2023/09/23 04:50:07;;;;;;;22.27;14.10;;;23.20;52.30;;;;;;5047082;27;94207;-52
2023/09/23 04:52:36;;;;;;;21.57;12.90;;;23.20;52.30;;;;;;5048420;27;92981;-53
2023/09/23 04:55:06;;;;;;;25.53;14.43;;;23.20;52.30;;;;;;5048196;27;92176;-52
2023/09/23 04:57:35;;;;;;;22.87;14.43;;;23.20;52.30;;;;;;5048678;27;92106;-52
2023/09/23 05:00:09;;;;;;;25.47;13.70;;;23.10;52.30;;;;;;5057853;27;95031;-52
2023/09/23 05:02:41;;;;;;;22.50;13.80;;;23.20;52.30;;;;;;5058700;27;94845;-52
2023/09/23 05:05:11;;;;;;;22.23;14.47;;;23.10;52.30;;;;;;5060029;27;92116;-53
2023/09/23 05:07:40;;;;;;;23.77;16.00;;;23.10;52.90;;;;;;5059757;27;92065;-52
2023/09/23 05:10:08;;;;;;;22.67;14.53;;;23.10;52.30;;;;;;5058376;27;94333;-52
2023/09/23 05:12:36;;;;;;;26.77;15.73;;;23.10;52.30;;;;;;5059051;27;93957;-52
2023/09/23 05:15:06;;;;;;;24.90;14.90;;;23.10;52.30;;;;;;5058731;27;91775;-52
2023/09/23 05:17:34;;;;;;;22.83;15.97;;;23.10;52.30;;;;;;5059967;27;91436;-52
2023/09/23 05:20:16;;;;;;;28.93;17.73;;;23.10;52.30;;;;;;5058830;27;92713;-52
2023/09/23 05:22:44;;;;;;;30.83;16.23;;;23.10;52.30;;;;;;5058947;27;92904;-52
2023/09/23 05:25:13;;;;;;;28.00;15.90;;;23.10;52.30;;;;;;5058421;27;93073;-52
2023/09/23 05:27:42;;;;;;;27.03;16.37;;;23.10;52.30;;;;;;5058594;27;92897;-52
2023/09/23 05:30:11;;;;;;;24.97;14.43;;;23.10;52.30;;;;;;5058896;27;92243;-52
2023/09/23 05:32:39;;;;;;;21.33;12.80;;;23.30;53.10;;;;;;5059014;27;93125;-52
2023/09/23 05:35:10;;;;;;;23.73;14.33;;;23.10;52.30;;;;;;5058962;27;92770;-52
2023/09/23 05:37:39;;;;;;;29.63;16.50;;;23.10;52.40;;;;;;5058591;27;92038;-53
2023/09/23 05:40:15;;;;;;;23.47;13.70;;;23.10;52.90;;;;;;5058913;27;94174;-53
2023/09/23 05:42:47;;;;;;;24.67;11.60;;;23.10;52.30;;;;;;5058182;27;92812;-52
2023/09/23 05:45:16;;;;;;;25.53;12.67;;;23.10;52.90;;;;;;5057857;27;92043;-52
2023/09/23 05:47:45;;;;;;;18.60;10.77;;;23.20;52.30;;;;;;5058439;27;92088;-53
2023/09/23 05:50:15;;;;;;;20.83;11.37;;;23.20;52.30;;;;;;5056667;27;94248;-52
2023/09/23 05:52:45;;;;;;;14.83;10.20;;;23.20;52.40;;;;;;5056898;27;93724;-53
2023/09/23 05:55:13;;;;;;;17.10;9.47;;;23.20;53.00;;;;;;5053377;27;92060;-52
2023/09/23 05:57:41;;;;;;;14.97;9.33;;;23.20;52.30;;;;;;5059088;27;93042;-53
2023/09/23 06:00:11;;;;;;;13.87;9.23;;;23.10;52.30;;;;;;5057924;27;93257;-52
2023/09/23 06:02:39;;;;;;;11.70;7.67;;;23.10;52.30;;;;;;5059017;27;92766;-52
2023/09/23 06:05:08;;;;;;;16.07;8.97;;;23.10;52.30;;;;;;5059116;27;91968;-52
2023/09/23 06:07:37;;;;;;;10.77;7.43;;;23.20;52.30;;;;;;5050416;27;92035;-52
2023/09/23 06:10:06;;;;;;;11.93;7.87;;;23.20;53.00;;;;;;5035522;28;93121;-52
2023/09/23 06:12:35;;;;;;;14.47;7.40;;;23.20;52.30;;;;;;5035654;28;92851;-53
2023/09/23 06:15:05;;;;;;;10.77;6.67;;;23.20;52.30;;;;;;5034877;28;92987;-52
2023/09/23 06:17:33;;;;;;;10.87;5.93;;;23.20;52.30;;;;;;5035537;28;92147;-53
2023/09/23 06:20:01;;;;;;;12.47;6.83;;;23.20;52.30;;;;;;5034991;28;93984;-52
2023/09/23 06:22:29;;;;;;;8.97;6.80;;;23.10;52.20;;;;;;5035676;28;93700;-52
2023/09/23 06:24:59;;;;;;;11.37;6.23;;;23.10;52.30;;;;;;5035544;28;92982;-51
2023/09/23 06:27:27;;;;;;;7.97;5.97;;;23.10;52.20;;;;;;5035053;28;92176;-52
2023/09/23 06:29:55;;;;;;;9.37;5.67;;;23.20;52.30;;;;;;5034503;28;93134;-52
2023/09/23 06:32:23;;;;;;;8.50;4.90;;;23.20;52.30;;;;;;5034123;28;92728;-52
2023/09/23 06:34:51;;;;;;;7.17;4.73;;;23.20;52.90;;;;;;5036219;28;92574;-53
2023/09/23 06:37:20;;;;;;;8.20;5.43;;;23.20;52.30;;;;;;5035266;28;92360;-51
2023/09/23 06:39:48;;;;;;;6.30;3.93;;;23.20;52.30;;;;;;5034018;28;94054;-52
2023/09/23 06:42:17;;;;;;;6.40;4.60;;;23.10;52.20;;;;;;5035402;28;94738;-53
2023/09/23 06:44:45;;;;;;;10.30;4.37;;;23.10;52.30;;;;;;5034639;28;92251;-53
2023/09/23 06:47:13;;;;;;;6.10;3.83;;;23.10;52.30;;;;;;5035431;28;92047;-52
2023/09/23 06:49:41;;;;;;;7.53;3.97;;;23.10;52.20;;;;;;5035200;28;94217;-52
2023/09/23 06:52:09;;;;;;;5.87;4.10;;;23.10;52.30;;;;;;5034536;28;92714;-52
2023/09/23 06:54:38;;;;;;;6.80;3.67;;;23.20;52.30;;;;;;5035038;28;92122;-52
2023/09/23 06:57:06;;;;;;;6.17;3.40;;;23.10;52.20;;;;;;5035369;28;91646;-52
2023/09/23 06:59:35;;;;;;;5.33;3.07;;;23.10;52.20;;;;;;5034851;28;92400;-52
2023/09/23 07:02:03;;;;;;;6.20;3.50;;;23.20;52.30;;;;;;5035010;28;92732;-52
2023/09/23 07:04:32;;;;;;;4.40;3.27;;;23.10;52.20;;;;;;5034366;28;93421;-52
2023/09/23 07:07:00;;;;;;;3.07;2.47;;;23.20;52.30;;;;;;5053607;27;92110;-52
2023/09/23 07:09:28;;;;;;;4.80;2.70;;;23.20;52.30;;;;;;5051315;27;93253;-52
2023/09/23 07:11:56;;;;;;;5.00;2.53;;;23.10;52.20;;;;;;5053078;27;92294;-52
2023/09/23 07:14:24;;;;;;;2.47;2.20;;;23.10;52.20;;;;;;5054536;27;92163;-52
2023/09/23 07:16:53;;;;;;;4.63;2.23;;;23.10;52.30;;;;;;5054719;27;92238;-52
2023/09/23 07:19:21;;;;;;;3.87;2.80;;;23.10;52.30;;;;;;5053131;27;93299;-52
2023/09/23 07:21:49;;;;;;;4.33;2.40;;;23.20;52.30;;;;;;5054562;27;93817;-52
2023/09/23 07:24:17;;;;;;;3.47;2.33;;;23.20;52.40;;;;;;5053128;27;92112;-52
2023/09/23 07:26:45;;;;;;;4.13;2.60;;;23.10;52.30;;;;;;5054015;27;92711;-52
2023/09/23 07:29:14;;;;;;;4.03;2.60;;;23.10;52.30;;;;;;5053281;27;95050;-52
2023/09/23 07:31:42;;;;;;;5.37;2.60;;;23.10;52.30;;;;;;5054665;27;94895;-52
2023/09/23 07:34:12;;;;;;;2.83;1.73;;;23.10;52.30;;;;;;5054954;27;92447;-52
2023/09/23 07:36:40;;;;;;;3.23;2.63;;;23.10;52.30;;;;;;5054706;27;92529;-52
2023/09/23 07:39:10;;;;;;;3.47;1.97;;;23.10;52.30;;;;;;5053138;27;93306;-51
2023/09/23 07:41:38;;;;;;;4.67;2.23;;;23.20;52.30;;;;;;5054222;27;93113;-52
2023/09/23 07:44:07;;;;;;;2.90;2.07;;;23.10;52.30;;;;;;5053563;27;92478;-52
2023/09/23 07:46:36;;;;;;;3.60;2.37;;;23.10;52.30;;;;;;5054997;27;91378;-53
2023/09/23 07:49:05;;;;;;;3.77;2.70;;;23.20;52.30;;;;;;5054651;27;93065;-52
2023/09/23 07:51:37;;;;;;;2.87;2.23;;;23.20;52.30;;;;;;5053601;27;92746;-52
2023/09/23 07:54:05;;;;;;;5.60;2.33;;;23.20;52.30;;;;;;5054082;27;92949;-52
2023/09/23 07:56:33;;;;;;;4.93;2.23;;;23.20;52.30;;;;;;5052274;27;92117;-52
2023/09/23 07:59:01;;;;;;;5.27;2.73;;;23.20;52.30;;;;;;5053627;27;93131;-53
2023/09/23 08:01:30;;;;;;;4.67;2.50;;;23.20;52.30;;;;;;5052850;27;92197;-52
2023/09/23 08:03:58;;;;;;;6.67;2.77;;;23.20;52.40;;;;;;5053989;27;92187;-52
2023/09/23 08:06:26;;;;;;;4.50;2.13;;;23.20;52.30;;;;;;5054163;27;92777;-53
2023/09/23 08:08:55;;;;;;;3.83;2.40;;;23.20;52.30;;;;;;5054066;27;93203;-52
2023/09/23 08:11:23;;;;;;;4.77;2.63;;;23.20;52.40;;;;;;5054409;27;92918;-52
2023/09/23 08:13:52;;;;;;;4.97;2.83;;;23.20;52.30;;;;;;5054636;27;92636;-53
2023/09/23 08:16:21;;;;;;;3.27;2.13;;;23.20;52.30;;;;;;5054112;27;92139;-53
2023/09/23 08:18:49;;;;;;;4.57;2.63;;;23.20;53.00;;;;;;5052864;27;94004;-52
2023/09/23 08:21:17;;;;;;;3.07;2.30;;;23.20;52.30;;;;;;5053737;27;93970;-53
2023/09/23 08:23:45;;;;;;;4.80;2.47;;;23.20;52.30;;;;;;5054387;27;92114;-52
2023/09/23 08:26:15;;;;;;;5.13;2.77;;;23.20;52.30;;;;;;5054020;27;92130;-52
2023/09/23 08:28:43;;;;;;;2.87;2.37;;;23.20;52.30;;;;;;5053600;27;93109;-52
2023/09/23 08:31:12;;;;;;;4.63;2.77;;;23.20;52.30;;;;;;5053991;27;92594;-52
2023/09/23 08:33:44;;;;;;;5.87;3.33;;;23.20;52.30;;;;;;5054565;27;92060;-52
2023/09/23 08:36:13;;;;;;;5.60;2.57;;;23.20;52.30;;;;;;5052946;27;91452;-53
2023/09/23 08:38:41;;;;;;;7.60;2.33;;;23.20;52.30;;;;;;5038301;27;93079;-53
2023/09/23 08:41:09;;;;;;;4.03;2.73;;;23.20;52.30;;;;;;5030290;27;92774;-53
2023/09/23 08:43:39;;;;;;;3.67;2.20;;;23.20;52.30;;;;;;5033398;28;93615;-53
2023/09/23 08:46:07;;;;;;;5.37;2.30;;;23.20;52.30;;;;;;5032809;28;92061;-52
2023/09/23 08:48:36;;;;;;;5.80;2.87;;;23.20;52.30;;;;;;5032781;27;93148;-53
2023/09/23 08:51:04;;;;;;;3.17;2.07;;;23.30;53.00;;;;;;5033159;28;92183;-52
2023/09/23 08:53:33;;;;;;;5.27;2.90;;;23.20;52.30;;;;;;5036177;28;92158;-52
2023/09/23 08:56:01;;;;;;;4.13;1.90;;;23.20;52.30;;;;;;5049136;27;92173;-52
2023/09/23 08:58:30;;;;;;;4.73;2.83;;;23.30;52.30;;;;;;5054338;27;93903;-52
2023/09/23 09:00:59;;;;;;;3.07;2.10;;;23.20;52.20;;;;;;5057023;27;92819;-53
2023/09/23 09:03:27;;;;;;;2.97;2.50;;;23.20;52.30;;;;;;5055462;27;92602;-52
2023/09/23 09:05:55;;;;;;;5.40;2.90;;;23.20;52.20;;;;;;5055834;27;92101;-53
2023/09/23 09:08:24;;;;;;;2.33;1.40;;;23.20;52.20;;;;;;5055755;27;94102;-52
2023/09/23 09:10:52;;;;;;;5.80;2.50;;;23.20;52.20;;;;;;5056440;27;93875;-52
2023/09/23 09:13:20;;;;;;;3.47;2.20;;;23.20;52.20;;;;;;5056162;27;92697;-52
2023/09/23 09:15:48;;;;;;;2.77;2.13;;;23.20;52.20;;;;;;5056932;27;92601;-52
2023/09/23 09:18:18;;;;;;;2.90;2.00;;;23.30;52.30;;;;;;5056429;27;92960;-52
2023/09/23 09:20:46;;;;;;;2.70;1.63;;;23.30;52.30;;;;;;5053697;27;92914;-52
2023/09/23 09:23:15;;;;;;;2.60;2.03;;;23.30;52.20;;;;;;5056543;27;92148;-52
2023/09/23 09:25:49;;;;;;;5.40;2.37;;;23.30;52.30;;;;;;5056552;27;91326;-52
2023/09/23 09:28:19;;;;;;;3.27;2.03;;;23.30;52.20;;;;;;5055865;27;92698;-51
2023/09/23 09:30:49;;;;;;;2.80;1.80;;;23.30;52.20;;;;;;5055881;27;92368;-52
2023/09/23 09:33:18;;;;;;;2.57;2.30;;;23.30;52.20;;;;;;5056227;27;93185;-52
2023/09/23 09:35:46;;;;;;;4.83;2.10;;;23.30;52.10;;;;;;5056618;27;92091;-52
2023/09/23 09:38:14;;;;;;;3.77;1.70;;;23.30;52.10;;;;;;5056285;27;93784;-52
2023/09/23 09:40:45;;;;;;;3.63;2.20;;;23.30;52.10;;;;;;5056200;27;92746;-52
2023/09/23 09:43:14;;;;;;;4.93;2.60;;;23.30;52.00;;;;;;5055751;27;92450;-53
2023/09/23 09:45:44;;;;;;;4.03;1.77;;;23.30;52.00;;;;;;5056038;27;92046;-52
2023/09/23 09:48:13;;;;;;;4.83;1.93;;;23.40;52.10;;;;;;5056134;27;92134;-52
2023/09/23 09:50:42;;;;;;;2.90;1.90;;;23.40;52.00;;;;;;5056002;27;92775;-52
2023/09/23 09:53:12;;;;;;;3.30;1.87;;;23.40;52.10;;;;;;5056269;27;92103;-53
2023/09/23 09:55:40;;;;;;;4.17;2.13;;;23.40;52.00;;;;;;5066161;27;92318;-52
2023/09/23 09:58:08;;;;;;;3.63;2.27;;;23.40;52.00;;;;;;5075946;27;94682;-52
2023/09/23 10:00:42;;;;;;;4.53;2.50;;;23.40;52.00;;;;;;5075262;27;94620;-52
2023/09/23 10:03:12;;;;;;;4.40;2.00;;;23.40;51.90;;;;;;5074847;27;92357;-53
2023/09/23 10:05:47;;;;;;;2.83;2.40;;;23.50;52.00;;;;;;5076435;27;92037;-53
2023/09/23 10:08:15;;;;;;;3.33;2.13;;;23.50;52.00;;;;;;5076463;27;93246;-52
2023/09/23 10:10:47;;;;;;;2.70;2.10;;;23.50;51.90;;;;;;5076758;27;92955;-52
2023/09/23 10:13:15;;;;;;;14.53;8.50;;;23.50;51.90;;;;;;5077265;27;92797;-52
2023/09/23 10:15:43;;;;;;;14.80;10.30;;;23.50;51.80;;;;;;5065371;27;94056;-53
2023/09/23 10:18:13;;;;;;;15.30;8.17;;;23.50;51.80;;;;;;5043169;27;93130;-52
2023/09/23 10:20:43;;;;;;;12.20;6.17;;;23.50;51.70;;;;;;5055373;27;92767;-52
2023/09/23 10:23:15;;;;;;;11.83;5.67;;;23.50;51.70;;;;;;5042524;27;93358;-52
2023/09/23 10:25:44;;;;;;;6.20;4.60;;;23.50;51.70;;;;;;5035759;28;92357;-53
2023/09/23 10:28:22;;;;;;;3.57;2.87;;;23.60;51.70;;;;;;5046298;27;93136;-52
2023/09/23 10:30:58;;;;;;;4.60;2.90;;;23.50;51.70;;;;;;5054972;27;93503;-52
2023/09/23 10:33:27;;;;;;;2.60;2.40;;;23.50;51.70;;;;;;5055184;27;92884;-53
2023/09/23 10:35:56;;;;;;;1.73;1.63;;;23.50;51.70;;;;;;5055681;27;92161;-53
2023/09/23 10:38:27;;;;;;;2.43;1.90;;;23.50;51.70;;;;;;5055651;27;93186;-53
2023/09/23 10:40:56;;;;;;;4.30;1.93;;;23.50;51.80;;;;;;5055814;27;92737;-52
2023/09/23 10:43:24;;;;;;;5.37;1.40;;;23.50;51.80;;;;;;5051426;27;92150;-52
2023/09/23 10:45:52;;;;;;;1.97;1.50;;;23.50;51.90;;;;;;5053778;27;93124;-51
2023/09/23 10:48:21;;;;;;;1.83;1.50;;;23.50;51.90;;;;;;5054111;27;93637;-51
2023/09/23 10:50:51;;;;;;;2.53;1.20;;;23.40;51.90;;;;;;5054446;27;93716;-53
2023/09/23 10:53:21;;;;;;;1.00;0.73;;;23.30;51.90;;;;;;5055073;27;92000;-54
2023/09/23 10:55:51;;;;;;;2.30;1.10;;;23.30;51.90;;;;;;5045399;27;92678;-50
2023/09/23 10:58:19;;;;;;;5.47;1.20;;;23.30;52.00;;;;;;5055247;27;94131;-51
2023/09/23 11:00:48;;;;;;;1.70;1.43;;;23.30;52.10;;;;;;5047503;27;93638;-50
2023/09/23 11:03:19;;;;;;;5.00;1.23;;;23.30;52.10;;;;;;5050477;27;92465;-51
2023/09/23 11:05:48;;;;;;;2.97;1.03;;;23.30;52.10;;;;;;5055320;27;91520;-53
2023/09/23 11:08:18;;;;;;;4.87;1.70;;;23.30;52.20;;;;;;5054382;27;92169;-52
2023/09/23 11:10:47;;;;;;;2.70;1.23;;;23.30;52.20;;;;;;5054257;27;92822;-52
2023/09/23 11:13:16;;;;;;;1.70;1.30;;;23.30;52.30;;;;;;5054214;27;93075;-51
2023/09/23 11:15:45;;;;;;;2.50;1.43;;;23.30;52.30;;;;;;5054393;27;92053;-53
2023/09/23 11:18:15;;;;;;;1.30;1.10;;;23.30;52.40;;;;;;5048909;27;93122;-52
2023/09/23 11:20:44;;;;;;;2.50;1.30;;;23.30;52.40;;;;;;5054503;27;92798;-52
2023/09/23 11:23:12;;;;;;;1.60;1.33;;;23.30;52.40;;;;;;5050514;27;92097;-55
2023/09/23 11:25:42;;;;;;;0.87;0.80;;;23.30;52.50;;;;;;5054983;27;92115;-53
2023/09/23 11:28:17;;;;;;;0.60;0.60;;;23.30;52.50;;;;;;5054700;27;93419;-53
2023/09/23 11:30:46;;;;;;;1.60;1.27;;;23.30;52.50;;;;;;5054811;27;92820;-53
2023/09/23 11:33:14;;;;;;;6.30;1.13;;;23.30;52.50;;;;;;5054674;27;92139;-53
2023/09/23 11:35:42;;;;;;;2.80;1.97;;;23.30;52.50;;;;;;5054888;27;92186;-53
2023/09/23 11:38:10;;;;;;;1.07;1.03;;;23.30;52.60;;;;;;5052846;27;93911;-53
2023/09/23 11:40:38;;;;;;;0.90;0.90;;;23.40;52.60;;;;;;5053666;27;94936;-53
2023/09/23 11:43:06;;;;;;;2.33;1.07;;;23.40;52.60;;;;;;5053097;27;92139;-53
2023/09/23 11:45:36;;;;;;;7.17;1.20;;;23.40;52.60;;;;;;5054008;27;92057;-53
2023/09/23 11:48:06;;;;;;;4.43;0.90;;;23.40;52.60;;;;;;5041547;27;93290;-53
2023/09/23 11:50:35;;;;;;;1.80;0.80;;;23.40;52.60;;;;;;5033514;28;92763;-53
2023/09/23 11:53:03;;;;;;;1.20;0.80;;;23.40;52.70;;;;;;5033183;28;92144;-52
2023/09/23 11:55:32;;;;;;;1.47;1.00;;;23.40;52.60;;;;;;5033765;28;91412;-54
2023/09/23 11:58:02;;;;;;;8.53;1.20;;;23.50;52.80;;;;;;5033256;28;93119;-53
2023/09/23 12:00:30;;;;;;;0.80;0.80;;;23.50;52.80;;;;;;5033819;28;92117;-54
2023/09/23 12:02:59;;;;;;;2.10;1.07;;;23.50;52.90;;;;;;5033641;28;93025;-54
2023/09/23 12:05:29;;;;;;;2.27;1.00;;;23.40;52.90;;;;;;5033646;28;92061;-54
2023/09/23 12:07:58;;;;;;;4.87;1.30;;;23.50;52.90;;;;;;5033728;28;93016;-54
2023/09/23 12:10:29;;;;;;;1.57;1.17;;;23.50;53.00;;;;;;5034253;28;93789;-54
2023/09/23 12:13:02;;;;;;;2.43;1.00;;;23.50;53.00;;;;;;5034222;28;92074;-54
2023/09/23 12:15:31;;;;;;;1.73;1.30;;;23.50;53.20;;;;;;5033991;28;92279;-54
2023/09/23 12:18:01;;;;;;;2.63;1.57;;;23.50;53.20;;;;;;5033793;28;92953;-54
2023/09/23 12:20:29;;;;;;;6.63;1.57;;;23.50;53.20;;;;;;5033592;28;92744;-54
2023/09/23 12:23:00;;;;;;;2.37;1.40;;;23.50;53.30;;;;;;5034571;28;92807;-54
2023/09/23 12:25:28;;;;;;;5.47;1.50;;;23.50;53.30;;;;;;5034960;28;92147;-54
2023/09/23 12:27:56;;;;;;;1.67;1.50;;;23.50;53.30;;;;;;5036241;28;93971;-53
2023/09/23 12:30:24;;;;;;;2.80;1.80;;;23.50;53.30;;;;;;5037462;28;94754;-53
2023/09/23 12:32:52;;;;;;;3.63;2.13;;;23.60;53.30;;;;;;5037482;28;91988;-54
2023/09/23 12:35:22;;;;;;;3.70;1.83;;;23.60;53.40;;;;;;5052064;27;92288;-54
2023/09/23 12:37:50;;;;;;;7.63;2.17;;;23.60;53.40;;;;;;5057011;27;93061;-53
2023/09/23 12:40:19;;;;;;;3.30;2.17;;;23.60;53.30;;;;;;5056014;27;92749;-54
2023/09/23 12:42:47;;;;;;;3.93;2.63;;;23.60;53.30;;;;;;5055703;27;92679;-53
2023/09/23 12:45:15;;;;;;;3.23;2.53;;;23.60;53.30;;;;;;5057483;27;91434;-53
2023/09/23 12:47:43;;;;;;;3.83;2.57;;;23.60;53.40;;;;;;5055908;27;94543;-53
2023/09/23 12:50:25;;;;;;;6.80;3.70;;;23.60;53.30;;;;;;5055572;27;93939;-53
2023/09/23 12:52:54;;;;;;;5.33;3.33;;;23.60;53.30;;;;;;5056572;27;93185;-53